PWSweather.com
Personal Weather Stations
Station Observations
KCARIDGE3
Ridgecrest, CA 93555

Ridgecrest, CA 93555

Lat: 35.62083817, Lon: -117.6733017

Elevation: 2315

Station Type:

High Low Average
Temperature 57.9°F14.4°F 45.9°F7.7°F 50.0°F10.0°F
Dew Point 45.3°F7.4°F 34.9°F1.6°F 40.7°F4.8°F
Winds 11.0 mph SW17.7 mph SW Calm Calm 3.4 mph 5.5 mph
Wind Gusts 15.0 mph24.1 mph -- 3.5 mph5.6 mph
Humidity 88% 51% 71%
Pressure 0.00 in0.00 in 0.00 in0.00 in -
Precipitation 0.00 in0.00 in - -
Hour Temp Dew Point Humidity Winds Wind Gusts Pressure Precip Precip Rate Daily Precip Total
12:02 AM 48.0°F8.9°C 41.9°F5.5°C 79% Calm Calm -- -338605.1 mb 0.00 in0.0 mm 0.00 in/hr0.0 mm/hr 0.00 in0.0 mm
12:07 AM 47.8°F8.8°C 41.7°F5.4°C 79% Calm Calm 2.0 mph3.2 kmh -338605.1 mb 0.00 in0.0 mm 0.00 in/hr0.0 mm/hr 0.00 in0.0 mm
12:12 AM 47.8°F8.8°C 41.7°F5.4°C 79% 0.9 mph S1.4 kmh S -- -338605.1 mb 0.00 in0.0 mm 0.00 in/hr0.0 mm/hr 0.00 in0.0 mm
12:17 AM 47.8°F8.8°C 41.7°F5.4°C 79% 0.9 mph S1.4 kmh S -- -338605.1 mb 0.00 in0.0 mm 0.00 in/hr0.0 mm/hr 0.00 in0.0 mm
12:22 AM 47.7°F8.7°C 41.7°F5.4°C 80% Calm Calm 2.0 mph3.2 kmh -338605.1 mb 0.00 in0.0 mm 0.00 in/hr0.0 mm/hr 0.00 in0.0 mm
12:27 AM 47.7°F8.7°C 41.7°F5.4°C 80% 0.9 mph S1.4 kmh S -- -338605.1 mb 0.00 in0.0 mm 0.00 in/hr0.0 mm/hr 0.00 in0.0 mm
12:32 AM 47.5°F8.6°C 41.4°F5.2°C 79% 0.9 mph S1.4 kmh S 0.9 mph1.4 kmh -338605.1 mb 0.00 in0.0 mm 0.00 in/hr0.0 mm/hr 0.00 in0.0 mm
12:37 AM 47.5°F8.6°C 41.5°F5.3°C 80% 0.9 mph S1.4 kmh S 2.0 mph3.2 kmh -338605.1 mb 0.00 in0.0 mm 0.00 in/hr0.0 mm/hr 0.00 in0.0 mm
12:42 AM 47.5°F8.6°C 41.5°F5.3°C 80% 0.9 mph S1.4 kmh S 2.0 mph3.2 kmh -338605.1 mb 0.00 in0.0 mm 0.00 in/hr0.0 mm/hr 0.00 in0.0 mm
12:47 AM 47.5°F8.6°C 41.4°F5.2°C 79% 0.9 mph S1.4 kmh S -- -338605.1 mb 0.00 in0.0 mm 0.00 in/hr0.0 mm/hr 0.00 in0.0 mm
12:52 AM 47.5°F8.6°C 41.4°F5.2°C 79% Calm Calm -- -338605.1 mb 0.00 in0.0 mm 0.00 in/hr0.0 mm/hr 0.00 in0.0 mm
12:57 AM 47.3°F8.5°C 41.7°F5.4°C 81% Calm Calm -- -338605.1 mb 0.00 in0.0 mm 0.00 in/hr0.0 mm/hr 0.00 in0.0 mm
01:02 AM 47.1°F8.4°C 41.5°F5.3°C 81% Calm Calm -- -338605.1 mb 0.00 in0.0 mm 0.00 in/hr0.0 mm/hr 0.00 in0.0 mm
01:07 AM 47.1°F8.4°C 41.5°F5.3°C 81% Calm Calm -- -338605.1 mb 0.00 in0.0 mm 0.00 in/hr0.0 mm/hr 0.00 in0.0 mm
01:12 AM 46.9°F8.3°C 41.4°F5.2°C 81% Calm Calm -- -338605.1 mb 0.00 in0.0 mm 0.00 in/hr0.0 mm/hr 0.00 in0.0 mm
01:17 AM 46.9°F8.3°C 41.4°F5.2°C 81% Calm Calm -- -338605.1 mb 0.00 in0.0 mm 0.00 in/hr0.0 mm/hr 0.00 in0.0 mm
01:22 AM 46.8°F8.2°C 41.2°F5.1°C 81% Calm Calm -- -338605.1 mb 0.00 in0.0 mm 0.00 in/hr0.0 mm/hr 0.00 in0.0 mm
01:27 AM 46.8°F8.2°C 41.2°F5.1°C 81% Calm Calm 2.0 mph3.2 kmh -338605.1 mb 0.00 in0.0 mm 0.00 in/hr0.0 mm/hr 0.00 in0.0 mm
01:32 AM 46.6°F8.1°C 41.0°F5.0°C 81% 0.9 mph S1.4 kmh S 2.0 mph3.2 kmh -338605.1 mb 0.00 in0.0 mm 0.00 in/hr0.0 mm/hr 0.00 in0.0 mm
01:37 AM 46.6°F8.1°C 41.4°F5.2°C 82% 0.9 mph S1.4 kmh S -- -338605.1 mb 0.00 in0.0 mm 0.00 in/hr0.0 mm/hr 0.00 in0.0 mm
01:42 AM 46.9°F8.3°C 41.4°F5.2°C 81% Calm Calm -- -338605.1 mb 0.00 in0.0 mm 0.00 in/hr0.0 mm/hr 0.00 in0.0 mm
01:47 AM 46.8°F8.2°C 41.2°F5.1°C 81% Calm Calm -- -338605.1 mb 0.00 in0.0 mm 0.00 in/hr0.0 mm/hr 0.00 in0.0 mm
01:52 AM 46.9°F8.3°C 41.7°F5.4°C 82% Calm Calm -- -338605.1 mb 0.00 in0.0 mm 0.00 in/hr0.0 mm/hr 0.00 in0.0 mm
01:57 AM 46.9°F8.3°C 41.4°F5.2°C 81% Calm Calm -- -338605.1 mb 0.00 in0.0 mm 0.00 in/hr0.0 mm/hr 0.00 in0.0 mm
02:02 AM 46.9°F8.3°C 41.7°F5.4°C 82% 0.9 mph S1.4 kmh S 2.0 mph3.2 kmh -338605.1 mb 0.00 in0.0 mm 0.00 in/hr0.0 mm/hr 0.00 in0.0 mm
02:07 AM 46.9°F8.3°C 41.7°F5.4°C 82% 0.9 mph S1.4 kmh S 0.9 mph1.4 kmh -338605.1 mb 0.00 in0.0 mm 0.00 in/hr0.0 mm/hr 0.00 in0.0 mm
02:12 AM 46.9°F8.3°C 41.7°F5.4°C 82% 0.9 mph S1.4 kmh S 0.9 mph1.4 kmh -338605.1 mb 0.00 in0.0 mm 0.00 in/hr0.0 mm/hr 0.00 in0.0 mm
02:17 AM 46.9°F8.3°C 41.7°F5.4°C 82% 0.9 mph S1.4 kmh S 0.9 mph1.4 kmh -338605.1 mb 0.00 in0.0 mm 0.00 in/hr0.0 mm/hr 0.00 in0.0 mm
02:22 AM 47.3°F8.5°C 42.1°F5.6°C 82% 2.0 mph S3.2 kmh S 0.9 mph1.4 kmh -338605.1 mb 0.00 in0.0 mm 0.00 in/hr0.0 mm/hr 0.00 in0.0 mm
02:27 AM 47.5°F8.6°C 42.3°F5.7°C 82% 0.9 mph S1.4 kmh S 0.9 mph1.4 kmh -338605.1 mb 0.00 in0.0 mm 0.00 in/hr0.0 mm/hr 0.00 in0.0 mm
02:32 AM 47.7°F8.7°C 42.1°F5.6°C 81% Calm Calm -- -338605.1 mb 0.00 in0.0 mm 0.00 in/hr0.0 mm/hr 0.00 in0.0 mm
02:37 AM 47.7°F8.7°C 41.7°F5.4°C 80% Calm Calm -- -338605.1 mb 0.00 in0.0 mm 0.00 in/hr0.0 mm/hr 0.00 in0.0 mm
02:42 AM 47.8°F8.8°C 41.9°F5.5°C 80% Calm Calm -- -338605.1 mb 0.00 in0.0 mm 0.00 in/hr0.0 mm/hr 0.00 in0.0 mm
02:47 AM 47.8°F8.8°C 41.9°F5.5°C 80% Calm Calm -- -338605.1 mb 0.00 in0.0 mm 0.00 in/hr0.0 mm/hr 0.00 in0.0 mm
02:52 AM 47.7°F8.7°C 41.7°F5.4°C 80% Calm Calm -- -338605.1 mb 0.00 in0.0 mm 0.00 in/hr0.0 mm/hr 0.00 in0.0 mm
02:57 AM 47.7°F8.7°C 41.7°F5.4°C 80% Calm Calm -- -338605.1 mb 0.00 in0.0 mm 0.00 in/hr0.0 mm/hr 0.00 in0.0 mm
03:02 AM 47.5°F8.6°C 41.5°F5.3°C 80% Calm Calm -- -338605.1 mb 0.00 in0.0 mm 0.00 in/hr0.0 mm/hr 0.00 in0.0 mm
03:07 AM 47.5°F8.6°C 41.9°F5.5°C 81% Calm Calm 0.9 mph1.4 kmh -338605.1 mb 0.00 in0.0 mm 0.00 in/hr0.0 mm/hr 0.00 in0.0 mm
03:12 AM 47.3°F8.5°C 41.7°F5.4°C 81% 0.9 mph S1.4 kmh S 0.9 mph1.4 kmh -338605.1 mb 0.00 in0.0 mm 0.00 in/hr0.0 mm/hr 0.00 in0.0 mm
03:17 AM 47.3°F8.5°C 41.7°F5.4°C 81% 2.0 mph S3.2 kmh S 4.0 mph6.4 kmh -338605.1 mb 0.00 in0.0 mm 0.00 in/hr0.0 mm/hr 0.00 in0.0 mm
03:22 AM 47.5°F8.6°C 41.9°F5.5°C 81% 2.0 mph S3.2 kmh S -- -338605.1 mb 0.00 in0.0 mm 0.00 in/hr0.0 mm/hr 0.00 in0.0 mm
03:27 AM 47.5°F8.6°C 41.9°F5.5°C 81% 0.9 mph S1.4 kmh S -- -338605.1 mb 0.00 in0.0 mm 0.00 in/hr0.0 mm/hr 0.00 in0.0 mm
03:32 AM 47.5°F8.6°C 41.9°F5.5°C 81% Calm Calm -- -338605.1 mb 0.00 in0.0 mm 0.00 in/hr0.0 mm/hr 0.00 in0.0 mm
03:37 AM 47.5°F8.6°C 41.9°F5.5°C 81% Calm Calm -- -338605.1 mb 0.00 in0.0 mm 0.00 in/hr0.0 mm/hr 0.00 in0.0 mm
03:42 AM 47.3°F8.5°C 41.7°F5.4°C 81% Calm Calm -- -338605.1 mb 0.00 in0.0 mm 0.00 in/hr0.0 mm/hr 0.00 in0.0 mm
03:47 AM 47.3°F8.5°C 42.1°F5.6°C 82% Calm Calm -- -338605.1 mb 0.00 in0.0 mm 0.00 in/hr0.0 mm/hr 0.00 in0.0 mm
03:52 AM 47.1°F8.4°C 41.9°F5.5°C 82% Calm Calm -- -338605.1 mb 0.00 in0.0 mm 0.00 in/hr0.0 mm/hr 0.00 in0.0 mm
03:57 AM 47.1°F8.4°C 41.9°F5.5°C 82% Calm Calm -- -338605.1 mb 0.00 in0.0 mm 0.00 in/hr0.0 mm/hr 0.00 in0.0 mm
04:02 AM 47.1°F8.4°C 41.9°F5.5°C 82% Calm Calm -- -338605.1 mb 0.00 in0.0 mm 0.00 in/hr0.0 mm/hr 0.00 in0.0 mm
04:07 AM 47.1°F8.4°C 41.9°F5.5°C 82% Calm Calm 0.9 mph1.4 kmh -338605.1 mb 0.00 in0.0 mm 0.00 in/hr0.0 mm/hr 0.00 in0.0 mm
04:12 AM 47.1°F8.4°C 41.9°F5.5°C 82% Calm Calm -- -338605.1 mb 0.00 in0.0 mm 0.00 in/hr0.0 mm/hr 0.00 in0.0 mm
04:17 AM 47.1°F8.4°C 41.9°F5.5°C 82% Calm Calm -- -338605.1 mb 0.00 in0.0 mm 0.00 in/hr0.0 mm/hr 0.00 in0.0 mm
04:22 AM 47.1°F8.4°C 41.9°F5.5°C 82% Calm Calm -- -338605.1 mb 0.00 in0.0 mm 0.00 in/hr0.0 mm/hr 0.00 in0.0 mm
04:27 AM 47.1°F8.4°C 41.9°F5.5°C 82% Calm Calm -- -338605.1 mb 0.00 in0.0 mm 0.00 in/hr0.0 mm/hr 0.00 in0.0 mm
04:32 AM 47.1°F8.4°C 42.3°F5.7°C 83% Calm Calm -- -338605.1 mb 0.00 in0.0 mm 0.00 in/hr0.0 mm/hr 0.00 in0.0 mm
04:37 AM 47.1°F8.4°C 42.3°F5.7°C 83% Calm Calm -- -338605.1 mb 0.00 in0.0 mm 0.00 in/hr0.0 mm/hr 0.00 in0.0 mm
04:42 AM 47.1°F8.4°C 42.3°F5.7°C 83% Calm Calm 0.9 mph1.4 kmh -338605.1 mb 0.00 in0.0 mm 0.00 in/hr0.0 mm/hr 0.00 in0.0 mm
04:47 AM 47.1°F8.4°C 42.3°F5.7°C 83% 0.9 mph S1.4 kmh S 2.0 mph3.2 kmh -338605.1 mb 0.00 in0.0 mm 0.00 in/hr0.0 mm/hr 0.00 in0.0 mm
04:52 AM 46.9°F8.3°C 42.4°F5.8°C 84% 0.9 mph S1.4 kmh S -- -338605.1 mb 0.00 in0.0 mm 0.00 in/hr0.0 mm/hr 0.00 in0.0 mm
04:57 AM 46.9°F8.3°C 42.4°F5.8°C 84% 0.9 mph S1.4 kmh S -- -338605.1 mb 0.00 in0.0 mm 0.00 in/hr0.0 mm/hr 0.00 in0.0 mm
05:02 AM 46.9°F8.3°C 42.4°F5.8°C 84% Calm Calm -- -338605.1 mb 0.00 in0.0 mm 0.00 in/hr0.0 mm/hr 0.00 in0.0 mm
05:07 AM 46.9°F8.3°C 42.4°F5.8°C 84% Calm Calm -- -338605.1 mb 0.00 in0.0 mm 0.00 in/hr0.0 mm/hr 0.00 in0.0 mm
05:12 AM 46.9°F8.3°C 42.4°F5.8°C 84% 0.9 mph S1.4 kmh S -- -338605.1 mb 0.00 in0.0 mm 0.00 in/hr0.0 mm/hr 0.00 in0.0 mm
05:17 AM 46.9°F8.3°C 42.4°F5.8°C 84% 0.9 mph S1.4 kmh S -- -338605.1 mb 0.00 in0.0 mm 0.00 in/hr0.0 mm/hr 0.00 in0.0 mm
05:22 AM 46.8°F8.2°C 42.4°F5.8°C 85% 0.9 mph S1.4 kmh S -- -338605.1 mb 0.00 in0.0 mm 0.00 in/hr0.0 mm/hr 0.00 in0.0 mm
05:27 AM 46.8°F8.2°C 42.4°F5.8°C 85% 0.9 mph S1.4 kmh S -- -338605.1 mb 0.00 in0.0 mm 0.00 in/hr0.0 mm/hr 0.00 in0.0 mm
05:32 AM 46.8°F8.2°C 42.8°F6.0°C 86% 0.9 mph S1.4 kmh S -- -338605.1 mb 0.00 in0.0 mm 0.00 in/hr0.0 mm/hr 0.00 in0.0 mm
05:37 AM 46.8°F8.2°C 42.8°F6.0°C 86% 0.9 mph S1.4 kmh S 2.9 mph4.7 kmh -338605.1 mb 0.00 in0.0 mm 0.00 in/hr0.0 mm/hr 0.00 in0.0 mm
05:42 AM 46.6°F8.1°C 42.6°F5.9°C 86% 2.0 mph S3.2 kmh S 2.0 mph3.2 kmh -338605.1 mb 0.00 in0.0 mm 0.00 in/hr0.0 mm/hr 0.00 in0.0 mm
05:47 AM 46.6°F8.1°C 42.6°F5.9°C 86% 2.9 mph E4.7 kmh E 2.9 mph4.7 kmh -338605.1 mb 0.00 in0.0 mm 0.00 in/hr0.0 mm/hr 0.00 in0.0 mm
05:52 AM 46.2°F7.9°C 42.3°F5.7°C 86% 2.9 mph E4.7 kmh E 2.0 mph3.2 kmh -338605.1 mb 0.00 in0.0 mm 0.00 in/hr0.0 mm/hr 0.00 in0.0 mm
05:57 AM 46.2°F7.9°C 42.3°F5.7°C 86% 2.9 mph E4.7 kmh E 2.9 mph4.7 kmh -338605.1 mb 0.00 in0.0 mm 0.00 in/hr0.0 mm/hr 0.00 in0.0 mm
06:02 AM 46.0°F7.8°C 42.1°F5.6°C 86% 2.9 mph E4.7 kmh E 2.0 mph3.2 kmh -338605.1 mb 0.00 in0.0 mm 0.00 in/hr0.0 mm/hr 0.00 in0.0 mm
06:07 AM 46.0°F7.8°C 42.1°F5.6°C 86% 2.0 mph E3.2 kmh E -- -338605.1 mb 0.00 in0.0 mm 0.00 in/hr0.0 mm/hr 0.00 in0.0 mm
06:12 AM 46.0°F7.8°C 42.4°F5.8°C 87% 0.9 mph E1.4 kmh E 0.9 mph1.4 kmh -338605.1 mb 0.00 in0.0 mm 0.00 in/hr0.0 mm/hr 0.00 in0.0 mm
06:17 AM 46.2°F7.9°C 42.6°F5.9°C 87% 2.0 mph E3.2 kmh E 2.0 mph3.2 kmh -338605.1 mb 0.00 in0.0 mm 0.00 in/hr0.0 mm/hr 0.00 in0.0 mm
06:22 AM 46.2°F7.9°C 42.6°F5.9°C 87% 2.0 mph E3.2 kmh E -- -338605.1 mb 0.00 in0.0 mm 0.00 in/hr0.0 mm/hr 0.00 in0.0 mm
06:27 AM 46.2°F7.9°C 42.6°F5.9°C 87% 0.9 mph E1.4 kmh E -- -338605.1 mb 0.00 in0.0 mm 0.00 in/hr0.0 mm/hr 0.00 in0.0 mm
06:32 AM 46.0°F7.8°C 42.4°F5.8°C 87% Calm Calm -- -338605.1 mb 0.00 in0.0 mm 0.00 in/hr0.0 mm/hr 0.00 in0.0 mm
06:37 AM 46.0°F7.8°C 42.4°F5.8°C 87% Calm Calm -- -338605.1 mb 0.00 in0.0 mm 0.00 in/hr0.0 mm/hr 0.00 in0.0 mm
06:42 AM 46.0°F7.8°C 42.4°F5.8°C 87% 0.9 mph E1.4 kmh E 0.9 mph1.4 kmh -338605.1 mb 0.00 in0.0 mm 0.00 in/hr0.0 mm/hr 0.00 in0.0 mm
06:47 AM 46.0°F7.8°C 42.4°F5.8°C 87% 0.9 mph E1.4 kmh E 2.0 mph3.2 kmh -338605.1 mb 0.00 in0.0 mm 0.00 in/hr0.0 mm/hr 0.00 in0.0 mm
06:52 AM 46.0°F7.8°C 42.4°F5.8°C 87% 0.9 mph E1.4 kmh E 0.9 mph1.4 kmh -338605.1 mb 0.00 in0.0 mm 0.00 in/hr0.0 mm/hr 0.00 in0.0 mm
06:57 AM 46.0°F7.8°C 42.1°F5.6°C 86% 0.9 mph E1.4 kmh E -- -338605.1 mb 0.00 in0.0 mm 0.00 in/hr0.0 mm/hr 0.00 in0.0 mm
07:02 AM 46.0°F7.8°C 42.1°F5.6°C 86% Calm Calm -- -338605.1 mb 0.00 in0.0 mm 0.00 in/hr0.0 mm/hr 0.00 in0.0 mm
07:07 AM 46.0°F7.8°C 42.1°F5.6°C 86% Calm Calm -- -338605.1 mb 0.00 in0.0 mm 0.00 in/hr0.0 mm/hr 0.00 in0.0 mm
07:12 AM 46.0°F7.8°C 42.1°F5.6°C 86% Calm Calm 0.9 mph1.4 kmh -338605.1 mb 0.00 in0.0 mm 0.00 in/hr0.0 mm/hr 0.00 in0.0 mm
07:17 AM 46.0°F7.8°C 42.1°F5.6°C 86% 0.9 mph E1.4 kmh E 0.9 mph1.4 kmh -338605.1 mb 0.00 in0.0 mm 0.00 in/hr0.0 mm/hr 0.00 in0.0 mm
07:22 AM 46.0°F7.8°C 42.1°F5.6°C 86% 2.0 mph ENE3.2 kmh ENE 2.0 mph3.2 kmh -338605.1 mb 0.00 in0.0 mm 0.00 in/hr0.0 mm/hr 0.00 in0.0 mm
07:27 AM 46.0°F7.8°C 42.1°F5.6°C 86% 0.9 mph ENE1.4 kmh ENE -- -338605.1 mb 0.00 in0.0 mm 0.00 in/hr0.0 mm/hr 0.00 in0.0 mm
07:32 AM 45.9°F7.7°C 41.9°F5.5°C 86% 0.9 mph E1.4 kmh E 2.9 mph4.7 kmh -338605.1 mb 0.00 in0.0 mm 0.00 in/hr0.0 mm/hr 0.00 in0.0 mm
07:37 AM 45.9°F7.7°C 41.9°F5.5°C 86% 2.0 mph E3.2 kmh E 2.9 mph4.7 kmh -338605.1 mb 0.00 in0.0 mm 0.00 in/hr0.0 mm/hr 0.00 in0.0 mm
07:42 AM 46.0°F7.8°C 42.4°F5.8°C 87% 2.9 mph E4.7 kmh E 4.9 mph7.9 kmh -338605.1 mb 0.00 in0.0 mm 0.00 in/hr0.0 mm/hr 0.00 in0.0 mm
07:47 AM 46.6°F8.1°C 43.2°F6.2°C 88% 4.9 mph E7.9 kmh E 4.9 mph7.9 kmh -338605.1 mb 0.00 in0.0 mm 0.00 in/hr0.0 mm/hr 0.00 in0.0 mm
07:52 AM 46.8°F8.2°C 43.3°F6.3°C 88% 4.9 mph E7.9 kmh E 4.9 mph7.9 kmh -338605.1 mb 0.00 in0.0 mm 0.00 in/hr0.0 mm/hr 0.00 in0.0 mm
07:57 AM 46.6°F8.1°C 43.0°F6.1°C 87% 4.0 mph E6.4 kmh E 2.9 mph4.7 kmh -338605.1 mb 0.00 in0.0 mm 0.00 in/hr0.0 mm/hr 0.00 in0.0 mm
08:02 AM 46.6°F8.1°C 43.0°F6.1°C 87% 4.0 mph E6.4 kmh E 2.9 mph4.7 kmh -338605.1 mb 0.00 in0.0 mm 0.00 in/hr0.0 mm/hr 0.00 in0.0 mm
08:07 AM 46.6°F8.1°C 43.0°F6.1°C 87% 2.9 mph E4.7 kmh E 2.9 mph4.7 kmh -338605.1 mb 0.00 in0.0 mm 0.00 in/hr0.0 mm/hr 0.00 in0.0 mm
08:12 AM 46.6°F8.1°C 43.0°F6.1°C 87% 2.9 mph E4.7 kmh E 4.9 mph7.9 kmh -338605.1 mb 0.00 in0.0 mm 0.00 in/hr0.0 mm/hr 0.00 in0.0 mm
08:17 AM 46.8°F8.2°C 43.2°F6.2°C 87% 2.9 mph E4.7 kmh E 2.9 mph4.7 kmh -338605.1 mb 0.00 in0.0 mm 0.00 in/hr0.0 mm/hr 0.00 in0.0 mm
08:22 AM 46.8°F8.2°C 43.2°F6.2°C 87% 2.9 mph E4.7 kmh E 2.9 mph4.7 kmh -338605.1 mb 0.00 in0.0 mm 0.00 in/hr0.0 mm/hr 0.00 in0.0 mm
08:27 AM 46.9°F8.3°C 43.3°F6.3°C 87% 2.9 mph E4.7 kmh E 4.9 mph7.9 kmh -338605.1 mb 0.00 in0.0 mm 0.00 in/hr0.0 mm/hr 0.00 in0.0 mm
08:32 AM 46.9°F8.3°C 43.3°F6.3°C 87% 2.9 mph E4.7 kmh E 4.9 mph7.9 kmh -338605.1 mb 0.00 in0.0 mm 0.00 in/hr0.0 mm/hr 0.00 in0.0 mm
08:37 AM 46.9°F8.3°C 43.3°F6.3°C 87% 4.0 mph E6.4 kmh E 2.0 mph3.2 kmh -338605.1 mb 0.00 in0.0 mm 0.00 in/hr0.0 mm/hr 0.00 in0.0 mm
08:42 AM 46.9°F8.3°C 43.3°F6.3°C 87% 4.0 mph ESE6.4 kmh ESE 2.9 mph4.7 kmh -338605.1 mb 0.00 in0.0 mm 0.00 in/hr0.0 mm/hr 0.00 in0.0 mm
08:47 AM 47.1°F8.4°C 43.5°F6.4°C 87% 4.0 mph E6.4 kmh E 2.0 mph3.2 kmh -338605.1 mb 0.00 in0.0 mm 0.00 in/hr0.0 mm/hr 0.00 in0.0 mm
08:52 AM 47.5°F8.6°C 44.1°F6.7°C 88% 2.9 mph E4.7 kmh E 0.9 mph1.4 kmh -338605.1 mb 0.00 in0.0 mm 0.00 in/hr0.0 mm/hr 0.00 in0.0 mm
08:57 AM 47.5°F8.6°C 43.9°F6.6°C 87% 2.0 mph E3.2 kmh E 0.9 mph1.4 kmh -338605.1 mb 0.00 in0.0 mm 0.00 in/hr0.0 mm/hr 0.00 in0.0 mm
09:02 AM 47.7°F8.7°C 44.1°F6.7°C 87% 2.0 mph E3.2 kmh E -- -338605.1 mb 0.00 in0.0 mm 0.00 in/hr0.0 mm/hr 0.00 in0.0 mm
09:07 AM 47.7°F8.7°C 44.1°F6.7°C 87% 0.9 mph E1.4 kmh E -- -338605.1 mb 0.00 in0.0 mm 0.00 in/hr0.0 mm/hr 0.00 in0.0 mm
09:12 AM 48.0°F8.9°C 44.4°F6.9°C 87% Calm Calm -- -338605.1 mb 0.00 in0.0 mm 0.00 in/hr0.0 mm/hr 0.00 in0.0 mm
09:17 AM 48.7°F9.3°C 44.8°F7.1°C 86% Calm Calm -- -338605.1 mb 0.00 in0.0 mm 0.00 in/hr0.0 mm/hr 0.00 in0.0 mm
09:22 AM 48.9°F9.4°C 44.6°F7.0°C 85% Calm Calm -- -338605.1 mb 0.00 in0.0 mm 0.00 in/hr0.0 mm/hr 0.00 in0.0 mm
09:27 AM 49.3°F9.6°C 44.4°F6.9°C 83% Calm Calm -- -338605.1 mb 0.00 in0.0 mm 0.00 in/hr0.0 mm/hr 0.00 in0.0 mm
09:32 AM 49.5°F9.7°C 44.2°F6.8°C 82% Calm Calm -- -338605.1 mb 0.00 in0.0 mm 0.00 in/hr0.0 mm/hr 0.00 in0.0 mm
09:37 AM 49.6°F9.8°C 44.4°F6.9°C 82% Calm Calm -- -338605.1 mb 0.00 in0.0 mm 0.00 in/hr0.0 mm/hr 0.00 in0.0 mm
09:42 AM 49.6°F9.8°C 44.1°F6.7°C 81% Calm Calm -- -338605.1 mb 0.00 in0.0 mm 0.00 in/hr0.0 mm/hr 0.00 in0.0 mm
09:47 AM 49.8°F9.9°C 44.2°F6.8°C 81% Calm Calm -- -338605.1 mb 0.00 in0.0 mm 0.00 in/hr0.0 mm/hr 0.00 in0.0 mm
09:52 AM 50.0°F10.0°C 44.8°F7.1°C 82% Calm Calm 0.9 mph1.4 kmh -338605.1 mb 0.00 in0.0 mm 0.00 in/hr0.0 mm/hr 0.00 in0.0 mm
09:57 AM 50.5°F10.3°C 45.3°F7.4°C 82% 2.0 mph NW3.2 kmh NW 2.0 mph3.2 kmh -338605.1 mb 0.00 in0.0 mm 0.00 in/hr0.0 mm/hr 0.00 in0.0 mm
10:02 AM 50.9°F10.5°C 45.0°F7.2°C 80% 2.0 mph NW3.2 kmh NW 2.0 mph3.2 kmh -338605.1 mb 0.00 in0.0 mm 0.00 in/hr0.0 mm/hr 0.00 in0.0 mm
10:07 AM 50.9°F10.5°C 45.0°F7.2°C 80% 2.0 mph NW3.2 kmh NW 2.0 mph3.2 kmh -338605.1 mb 0.00 in0.0 mm 0.00 in/hr0.0 mm/hr 0.00 in0.0 mm
10:12 AM 51.1°F10.6°C 44.4°F6.9°C 78% 0.9 mph NW1.4 kmh NW -- -338605.1 mb 0.00 in0.0 mm 0.00 in/hr0.0 mm/hr 0.00 in0.0 mm
10:17 AM 51.3°F10.7°C 44.2°F6.8°C 77% 0.9 mph NW1.4 kmh NW -- -338605.1 mb 0.00 in0.0 mm 0.00 in/hr0.0 mm/hr 0.00 in0.0 mm
10:22 AM 51.4°F10.8°C 44.1°F6.7°C 76% Calm Calm 0.9 mph1.4 kmh -338605.1 mb 0.00 in0.0 mm 0.00 in/hr0.0 mm/hr 0.00 in0.0 mm
10:27 AM 51.8°F11.0°C 44.4°F6.9°C 76% 0.9 mph NW1.4 kmh NW -- -338605.1 mb 0.00 in0.0 mm 0.00 in/hr0.0 mm/hr 0.00 in0.0 mm
10:32 AM 52.0°F11.1°C 43.9°F6.6°C 74% 0.9 mph N1.4 kmh N 4.0 mph6.4 kmh -338605.1 mb 0.00 in0.0 mm 0.00 in/hr0.0 mm/hr 0.00 in0.0 mm
10:37 AM 51.6°F10.9°C 44.2°F6.8°C 76% 2.0 mph N3.2 kmh N -- -338605.1 mb 0.00 in0.0 mm 0.00 in/hr0.0 mm/hr 0.00 in0.0 mm
10:42 AM 51.4°F10.8°C 44.4°F6.9°C 77% 2.0 mph N3.2 kmh N -- -338605.1 mb 0.00 in0.0 mm 0.00 in/hr0.0 mm/hr 0.00 in0.0 mm
10:47 AM 51.4°F10.8°C 44.1°F6.7°C 76% 0.9 mph N1.4 kmh N 2.0 mph3.2 kmh -338605.1 mb 0.00 in0.0 mm 0.00 in/hr0.0 mm/hr 0.00 in0.0 mm
10:52 AM 51.4°F10.8°C 44.1°F6.7°C 76% 0.9 mph N1.4 kmh N 0.9 mph1.4 kmh -338605.1 mb 0.00 in0.0 mm 0.00 in/hr0.0 mm/hr 0.00 in0.0 mm
10:57 AM 51.6°F10.9°C 43.9°F6.6°C 75% 2.0 mph N3.2 kmh N -- -338605.1 mb 0.00 in0.0 mm 0.00 in/hr0.0 mm/hr 0.00 in0.0 mm
11:02 AM 51.6°F10.9°C 44.2°F6.8°C 76% 2.0 mph NNE3.2 kmh NNE 2.9 mph4.7 kmh -338605.1 mb 0.00 in0.0 mm 0.00 in/hr0.0 mm/hr 0.00 in0.0 mm
11:07 AM 52.0°F11.1°C 44.6°F7.0°C 76% 2.0 mph NE3.2 kmh NE 2.9 mph4.7 kmh -338605.1 mb 0.00 in0.0 mm 0.00 in/hr0.0 mm/hr 0.00 in0.0 mm
11:12 AM 52.0°F11.1°C 43.9°F6.6°C 74% 2.0 mph NNW3.2 kmh NNW 2.0 mph3.2 kmh -338605.1 mb 0.00 in0.0 mm 0.00 in/hr0.0 mm/hr 0.00 in0.0 mm
11:17 AM 52.0°F11.1°C 43.5°F6.4°C 73% 2.0 mph NNW3.2 kmh NNW 2.9 mph4.7 kmh -338605.1 mb 0.00 in0.0 mm 0.00 in/hr0.0 mm/hr 0.00 in0.0 mm
11:22 AM 52.2°F11.2°C 43.3°F6.3°C 72% 2.0 mph NW3.2 kmh NW 4.0 mph6.4 kmh -338605.1 mb 0.00 in0.0 mm 0.00 in/hr0.0 mm/hr 0.00 in0.0 mm
11:27 AM 52.2°F11.2°C 43.0°F6.1°C 71% 2.9 mph NW4.7 kmh NW 2.9 mph4.7 kmh -338605.1 mb 0.00 in0.0 mm 0.00 in/hr0.0 mm/hr 0.00 in0.0 mm
11:32 AM 52.5°F11.4°C 43.0°F6.1°C 70% 2.9 mph WNW4.7 kmh WNW 0.9 mph1.4 kmh -338605.1 mb 0.00 in0.0 mm 0.00 in/hr0.0 mm/hr 0.00 in0.0 mm
11:37 AM 52.5°F11.4°C 43.0°F6.1°C 70% 2.0 mph WNW3.2 kmh WNW 2.9 mph4.7 kmh -338605.1 mb 0.00 in0.0 mm 0.00 in/hr0.0 mm/hr 0.00 in0.0 mm
11:42 AM 52.5°F11.4°C 42.6°F5.9°C 69% 2.0 mph WNW3.2 kmh WNW -- -338605.1 mb 0.00 in0.0 mm 0.00 in/hr0.0 mm/hr 0.00 in0.0 mm
11:47 AM 52.5°F11.4°C 43.0°F6.1°C 70% 2.0 mph WNW3.2 kmh WNW 2.9 mph4.7 kmh -338605.1 mb 0.00 in0.0 mm 0.00 in/hr0.0 mm/hr 0.00 in0.0 mm
11:52 AM 52.9°F11.6°C 43.3°F6.3°C 70% 0.9 mph WNW1.4 kmh WNW 2.0 mph3.2 kmh -338605.1 mb 0.00 in0.0 mm 0.00 in/hr0.0 mm/hr 0.00 in0.0 mm
11:57 AM 53.4°F11.9°C 43.2°F6.2°C 68% 2.0 mph W3.2 kmh W 4.0 mph6.4 kmh -338605.1 mb 0.00 in0.0 mm 0.00 in/hr0.0 mm/hr 0.00 in0.0 mm
12:02 PM 53.6°F12.0°C 43.0°F6.1°C 67% 2.0 mph SW3.2 kmh SW 2.0 mph3.2 kmh -338605.1 mb 0.00 in0.0 mm 0.00 in/hr0.0 mm/hr 0.00 in0.0 mm
12:07 PM 53.8°F12.1°C 43.2°F6.2°C 67% 0.9 mph S1.4 kmh S 0.9 mph1.4 kmh -338605.1 mb 0.00 in0.0 mm 0.00 in/hr0.0 mm/hr 0.00 in0.0 mm
12:12 PM 54.0°F12.2°C 42.8°F6.0°C 66% 0.9 mph SE1.4 kmh SE 0.9 mph1.4 kmh -338605.1 mb 0.00 in0.0 mm 0.00 in/hr0.0 mm/hr 0.00 in0.0 mm
12:17 PM 54.1°F12.3°C 43.0°F6.1°C 66% 0.9 mph S1.4 kmh S -- -338605.1 mb 0.00 in0.0 mm 0.00 in/hr0.0 mm/hr 0.00 in0.0 mm
12:22 PM 54.3°F12.4°C 42.8°F6.0°C 65% 2.0 mph SW3.2 kmh SW 2.0 mph3.2 kmh -338605.1 mb 0.00 in0.0 mm 0.00 in/hr0.0 mm/hr 0.00 in0.0 mm
12:27 PM 55.0°F12.8°C 43.2°F6.2°C 64% 2.0 mph SW3.2 kmh SW 2.9 mph4.7 kmh -338605.1 mb 0.00 in0.0 mm 0.00 in/hr0.0 mm/hr 0.00 in0.0 mm
12:32 PM 55.0°F12.8°C 42.3°F5.7°C 62% 2.0 mph NW3.2 kmh NW 2.9 mph4.7 kmh -338605.1 mb 0.00 in0.0 mm 0.00 in/hr0.0 mm/hr 0.00 in0.0 mm
12:37 PM 54.9°F12.7°C 43.3°F6.3°C 65% 2.9 mph NE4.7 kmh NE 4.0 mph6.4 kmh -338605.1 mb 0.00 in0.0 mm 0.00 in/hr0.0 mm/hr 0.00 in0.0 mm
12:42 PM 54.3°F12.4°C 43.2°F6.2°C 66% 4.0 mph E6.4 kmh E 2.0 mph3.2 kmh -338605.1 mb 0.00 in0.0 mm 0.00 in/hr0.0 mm/hr 0.00 in0.0 mm
12:47 PM 54.1°F12.3°C 43.3°F6.3°C 67% 2.9 mph E4.7 kmh E 2.0 mph3.2 kmh -338605.1 mb 0.00 in0.0 mm 0.00 in/hr0.0 mm/hr 0.00 in0.0 mm
12:52 PM 54.1°F12.3°C 43.3°F6.3°C 67% 2.0 mph ESE3.2 kmh ESE 2.9 mph4.7 kmh -338605.1 mb 0.00 in0.0 mm 0.00 in/hr0.0 mm/hr 0.00 in0.0 mm
12:57 PM 54.3°F12.4°C 43.5°F6.4°C 67% 2.0 mph E3.2 kmh E 4.9 mph7.9 kmh -338605.1 mb 0.00 in0.0 mm 0.00 in/hr0.0 mm/hr 0.00 in0.0 mm
01:02 PM 54.5°F12.5°C 43.3°F6.3°C 66% 2.0 mph ENE3.2 kmh ENE 2.9 mph4.7 kmh -338605.1 mb 0.00 in0.0 mm 0.00 in/hr0.0 mm/hr 0.00 in0.0 mm
01:07 PM 54.3°F12.4°C 42.8°F6.0°C 65% 2.9 mph NE4.7 kmh NE 2.9 mph4.7 kmh -338605.1 mb 0.00 in0.0 mm 0.00 in/hr0.0 mm/hr 0.00 in0.0 mm
01:12 PM 54.5°F12.5°C 43.3°F6.3°C 66% 2.9 mph SE4.7 kmh SE 2.9 mph4.7 kmh -338605.1 mb 0.00 in0.0 mm 0.00 in/hr0.0 mm/hr 0.00 in0.0 mm
01:17 PM 54.3°F12.4°C 42.8°F6.0°C 65% 2.9 mph E4.7 kmh E 2.0 mph3.2 kmh -338605.1 mb 0.00 in0.0 mm 0.00 in/hr0.0 mm/hr 0.00 in0.0 mm
01:22 PM 54.3°F12.4°C 42.8°F6.0°C 65% 2.0 mph E3.2 kmh E 2.9 mph4.7 kmh -338605.1 mb 0.00 in0.0 mm 0.00 in/hr0.0 mm/hr 0.00 in0.0 mm
01:27 PM 54.5°F12.5°C 43.3°F6.3°C 66% 2.0 mph SE3.2 kmh SE 4.0 mph6.4 kmh -338605.1 mb 0.00 in0.0 mm 0.00 in/hr0.0 mm/hr 0.00 in0.0 mm
01:32 PM 54.9°F12.7°C 43.3°F6.3°C 65% 2.0 mph ESE3.2 kmh ESE 2.9 mph4.7 kmh -338605.1 mb 0.00 in0.0 mm 0.00 in/hr0.0 mm/hr 0.00 in0.0 mm
01:37 PM 55.0°F12.8°C 43.5°F6.4°C 65% 4.0 mph SSW6.4 kmh SSW 6.0 mph9.7 kmh -338605.1 mb 0.00 in0.0 mm 0.00 in/hr0.0 mm/hr 0.00 in0.0 mm
01:42 PM 55.8°F13.2°C 42.1°F5.6°C 60% 4.0 mph SW6.4 kmh SW 4.0 mph6.4 kmh -338605.1 mb 0.00 in0.0 mm 0.00 in/hr0.0 mm/hr 0.00 in0.0 mm
01:47 PM 55.8°F13.2°C 41.7°F5.4°C 59% 4.9 mph S7.9 kmh S 4.9 mph7.9 kmh -338605.1 mb 0.00 in0.0 mm 0.00 in/hr0.0 mm/hr 0.00 in0.0 mm
01:52 PM 56.1°F13.4°C 41.9°F5.5°C 59% 4.0 mph S6.4 kmh S -- -338605.1 mb 0.00 in0.0 mm 0.00 in/hr0.0 mm/hr 0.00 in0.0 mm
01:57 PM 56.1°F13.4°C 41.2°F5.1°C 57% 2.0 mph S3.2 kmh S -- -338605.1 mb 0.00 in0.0 mm 0.00 in/hr0.0 mm/hr 0.00 in0.0 mm
02:02 PM 56.3°F13.5°C 41.7°F5.4°C 58% Calm Calm 2.0 mph3.2 kmh -338605.1 mb 0.00 in0.0 mm 0.00 in/hr0.0 mm/hr 0.00 in0.0 mm
02:07 PM 56.3°F13.5°C 41.7°F5.4°C 58% 0.9 mph SSW1.4 kmh SSW 2.0 mph3.2 kmh -338605.1 mb 0.00 in0.0 mm 0.00 in/hr0.0 mm/hr 0.00 in0.0 mm
02:12 PM 56.5°F13.6°C 41.9°F5.5°C 58% 2.0 mph SSE3.2 kmh SSE 6.0 mph9.7 kmh -338605.1 mb 0.00 in0.0 mm 0.00 in/hr0.0 mm/hr 0.00 in0.0 mm
02:17 PM 57.2°F14.0°C 42.1°F5.6°C 57% 4.0 mph SSW6.4 kmh SSW 6.0 mph9.7 kmh -338605.1 mb 0.00 in0.0 mm 0.00 in/hr0.0 mm/hr 0.00 in0.0 mm
02:22 PM 57.4°F14.1°C 42.3°F5.7°C 57% 4.9 mph S7.9 kmh S 4.9 mph7.9 kmh -338605.1 mb 0.00 in0.0 mm 0.00 in/hr0.0 mm/hr 0.00 in0.0 mm
02:27 PM 57.6°F14.2°C 40.6°F4.8°C 53% 4.9 mph S7.9 kmh S 6.9 mph11.1 kmh -338605.1 mb 0.00 in0.0 mm 0.00 in/hr0.0 mm/hr 0.00 in0.0 mm
02:32 PM 57.6°F14.2°C 39.6°F4.2°C 51% 6.9 mph S11.1 kmh S 13.0 mph20.9 kmh -338605.1 mb 0.00 in0.0 mm 0.00 in/hr0.0 mm/hr 0.00 in0.0 mm
02:37 PM 57.0°F13.9°C 40.1°F4.5°C 53% 8.1 mph SSE13.0 kmh SSE 6.0 mph9.7 kmh -338605.1 mb 0.00 in0.0 mm 0.00 in/hr0.0 mm/hr 0.00 in0.0 mm
02:42 PM 57.0°F13.9°C 40.5°F4.7°C 54% 6.0 mph SSW9.7 kmh SSW 4.0 mph6.4 kmh -338605.1 mb 0.00 in0.0 mm 0.00 in/hr0.0 mm/hr 0.00 in0.0 mm
02:47 PM 57.4°F14.1°C 41.4°F5.2°C 55% 4.0 mph SSW6.4 kmh SSW 4.0 mph6.4 kmh -338605.1 mb 0.00 in0.0 mm 0.00 in/hr0.0 mm/hr 0.00 in0.0 mm
02:52 PM 57.6°F14.2°C 40.6°F4.8°C 53% 6.0 mph S9.7 kmh S 4.9 mph7.9 kmh -338605.1 mb 0.00 in0.0 mm 0.00 in/hr0.0 mm/hr 0.00 in0.0 mm
02:57 PM 57.7°F14.3°C 41.2°F5.1°C 54% 6.9 mph SSW11.1 kmh SSW 2.9 mph4.7 kmh -338605.1 mb 0.00 in0.0 mm 0.00 in/hr0.0 mm/hr 0.00 in0.0 mm
03:02 PM 57.7°F14.3°C 40.6°F4.8°C 53% 6.0 mph S9.7 kmh S 6.9 mph11.1 kmh -338605.1 mb 0.00 in0.0 mm 0.00 in/hr0.0 mm/hr 0.00 in0.0 mm
03:07 PM 57.9°F14.4°C 40.8°F4.9°C 53% 6.9 mph S11.1 kmh S 11.0 mph17.7 kmh -338605.1 mb 0.00 in0.0 mm 0.00 in/hr0.0 mm/hr 0.00 in0.0 mm
03:12 PM 57.4°F14.1°C 40.5°F4.7°C 53% 8.9 mph S14.3 kmh S 8.1 mph13.0 kmh -338605.1 mb 0.00 in0.0 mm 0.00 in/hr0.0 mm/hr 0.00 in0.0 mm
03:17 PM 56.8°F13.8°C 40.5°F4.7°C 54% 10.1 mph S16.3 kmh S 10.1 mph16.3 kmh -338605.1 mb 0.00 in0.0 mm 0.00 in/hr0.0 mm/hr 0.00 in0.0 mm
03:22 PM 56.7°F13.7°C 40.3°F4.6°C 54% 8.9 mph SSW14.3 kmh SSW 8.1 mph13.0 kmh -338605.1 mb 0.00 in0.0 mm 0.00 in/hr0.0 mm/hr 0.00 in0.0 mm
03:27 PM 56.7°F13.7°C 40.6°F4.8°C 55% 8.1 mph S13.0 kmh S 6.9 mph11.1 kmh -338605.1 mb 0.00 in0.0 mm 0.00 in/hr0.0 mm/hr 0.00 in0.0 mm
03:32 PM 56.8°F13.8°C 40.8°F4.9°C 55% 6.0 mph SSW9.7 kmh SSW 8.9 mph14.3 kmh -338605.1 mb 0.00 in0.0 mm 0.00 in/hr0.0 mm/hr 0.00 in0.0 mm
03:37 PM 56.8°F13.8°C 40.8°F4.9°C 55% 6.9 mph SW11.1 kmh SW 4.9 mph7.9 kmh -338605.1 mb 0.00 in0.0 mm 0.00 in/hr0.0 mm/hr 0.00 in0.0 mm
03:42 PM 56.8°F13.8°C 40.8°F4.9°C 55% 6.0 mph SSE9.7 kmh SSE 6.0 mph9.7 kmh -338605.1 mb 0.00 in0.0 mm 0.00 in/hr0.0 mm/hr 0.00 in0.0 mm
03:47 PM 56.8°F13.8°C 41.7°F5.4°C 57% 4.9 mph SSE7.9 kmh SSE 6.9 mph11.1 kmh -338605.1 mb 0.00 in0.0 mm 0.00 in/hr0.0 mm/hr 0.00 in0.0 mm
03:52 PM 57.4°F14.1°C 42.3°F5.7°C 57% 6.9 mph S11.1 kmh S 4.9 mph7.9 kmh -338605.1 mb 0.00 in0.0 mm 0.00 in/hr0.0 mm/hr 0.00 in0.0 mm
03:57 PM 57.7°F14.3°C 42.1°F5.6°C 56% 4.9 mph SW7.9 kmh SW 2.0 mph3.2 kmh -338605.1 mb 0.00 in0.0 mm 0.00 in/hr0.0 mm/hr 0.00 in0.0 mm
04:02 PM 57.6°F14.2°C 40.1°F4.5°C 52% 4.9 mph SW7.9 kmh SW 6.9 mph11.1 kmh -338605.1 mb 0.00 in0.0 mm 0.00 in/hr0.0 mm/hr 0.00 in0.0 mm
04:07 PM 57.0°F13.9°C 39.0°F3.9°C 51% 6.0 mph SW9.7 kmh SW 10.1 mph16.3 kmh -338605.1 mb 0.00 in0.0 mm 0.00 in/hr0.0 mm/hr 0.00 in0.0 mm
04:12 PM 56.7°F13.7°C 40.3°F4.6°C 54% 6.9 mph S11.1 kmh S 8.9 mph14.3 kmh -338605.1 mb 0.00 in0.0 mm 0.00 in/hr0.0 mm/hr 0.00 in0.0 mm
04:17 PM 55.8°F13.2°C 40.3°F4.6°C 56% 8.1 mph S13.0 kmh S 10.1 mph16.3 kmh -338605.1 mb 0.00 in0.0 mm 0.00 in/hr0.0 mm/hr 0.00 in0.0 mm
04:22 PM 55.4°F13.0°C 40.8°F4.9°C 58% 8.9 mph SSW14.3 kmh SSW 6.9 mph11.1 kmh -338605.1 mb 0.00 in0.0 mm 0.00 in/hr0.0 mm/hr 0.00 in0.0 mm
04:27 PM 54.9°F12.7°C 40.3°F4.6°C 58% 8.9 mph SSW14.3 kmh SSW 6.9 mph11.1 kmh -338605.1 mb 0.00 in0.0 mm 0.00 in/hr0.0 mm/hr 0.00 in0.0 mm
04:32 PM 54.5°F12.5°C 40.1°F4.5°C 58% 8.1 mph SSW13.0 kmh SSW 12.1 mph19.5 kmh -338605.1 mb 0.00 in0.0 mm 0.00 in/hr0.0 mm/hr 0.00 in0.0 mm
04:37 PM 54.0°F12.2°C 39.6°F4.2°C 58% 10.1 mph S16.3 kmh S 14.1 mph22.7 kmh -338605.1 mb 0.00 in0.0 mm 0.00 in/hr0.0 mm/hr 0.00 in0.0 mm
04:42 PM 53.4°F11.9°C 39.9°F4.4°C 60% 11.0 mph SW17.7 kmh SW 6.9 mph11.1 kmh -338605.1 mb 0.00 in0.0 mm 0.00 in/hr0.0 mm/hr 0.00 in0.0 mm
04:47 PM 53.4°F11.9°C 40.3°F4.6°C 61% 10.1 mph SSW16.3 kmh SSW 10.1 mph16.3 kmh -338605.1 mb 0.00 in0.0 mm 0.00 in/hr0.0 mm/hr 0.00 in0.0 mm
04:52 PM 53.2°F11.8°C 40.6°F4.8°C 62% 10.1 mph S16.3 kmh S 14.1 mph22.7 kmh -338605.1 mb 0.00 in0.0 mm 0.00 in/hr0.0 mm/hr 0.00 in0.0 mm
04:57 PM 52.9°F11.6°C 39.7°F4.3°C 61% 10.1 mph SSW16.3 kmh SSW 4.9 mph7.9 kmh -338605.1 mb 0.00 in0.0 mm 0.00 in/hr0.0 mm/hr 0.00 in0.0 mm
05:02 PM 52.9°F11.6°C 40.3°F4.6°C 62% 8.9 mph SSW14.3 kmh SSW 6.9 mph11.1 kmh -338605.1 mb 0.00 in0.0 mm 0.00 in/hr0.0 mm/hr 0.00 in0.0 mm
05:07 PM 52.5°F11.4°C 39.9°F4.4°C 62% 6.9 mph SSW11.1 kmh SSW 10.1 mph16.3 kmh -338605.1 mb 0.00 in0.0 mm 0.00 in/hr0.0 mm/hr 0.00 in0.0 mm
05:12 PM 52.3°F11.3°C 40.5°F4.7°C 64% 6.9 mph S11.1 kmh S 6.9 mph11.1 kmh -338605.1 mb 0.00 in0.0 mm 0.00 in/hr0.0 mm/hr 0.00 in0.0 mm
05:17 PM 52.2°F11.2°C 40.3°F4.6°C 64% 8.1 mph SSW13.0 kmh SSW 8.9 mph14.3 kmh -338605.1 mb 0.00 in0.0 mm 0.00 in/hr0.0 mm/hr 0.00 in0.0 mm
05:22 PM 52.0°F11.1°C 39.7°F4.3°C 63% 8.1 mph S13.0 kmh S 12.1 mph19.5 kmh -338605.1 mb 0.00 in0.0 mm 0.00 in/hr0.0 mm/hr 0.00 in0.0 mm
05:27 PM 52.0°F11.1°C 39.7°F4.3°C 63% 6.9 mph SSW11.1 kmh SSW 6.9 mph11.1 kmh -338605.1 mb 0.00 in0.0 mm 0.00 in/hr0.0 mm/hr 0.00 in0.0 mm
05:32 PM 51.6°F10.9°C 39.0°F3.9°C 62% 8.1 mph SSW13.0 kmh SSW 6.9 mph11.1 kmh -338605.1 mb 0.00 in0.0 mm 0.00 in/hr0.0 mm/hr 0.00 in0.0 mm
05:37 PM 51.6°F10.9°C 39.9°F4.4°C 64% 8.9 mph SW14.3 kmh SW 4.0 mph6.4 kmh -338605.1 mb 0.00 in0.0 mm 0.00 in/hr0.0 mm/hr 0.00 in0.0 mm
05:42 PM 51.6°F10.9°C 40.3°F4.6°C 65% 8.1 mph SW13.0 kmh SW 8.9 mph14.3 kmh -338605.1 mb 0.00 in0.0 mm 0.00 in/hr0.0 mm/hr 0.00 in0.0 mm
05:47 PM 51.6°F10.9°C 41.0°F5.0°C 67% 8.1 mph SW13.0 kmh SW 6.0 mph9.7 kmh -338605.1 mb 0.00 in0.0 mm 0.00 in/hr0.0 mm/hr 0.00 in0.0 mm
05:52 PM 51.4°F10.8°C 39.2°F4.0°C 63% 8.1 mph SSW13.0 kmh SSW 6.0 mph9.7 kmh -338605.1 mb 0.00 in0.0 mm 0.00 in/hr0.0 mm/hr 0.00 in0.0 mm
05:57 PM 51.3°F10.7°C 38.7°F3.7°C 62% 6.9 mph SSW11.1 kmh SSW 6.9 mph11.1 kmh -338605.1 mb 0.00 in0.0 mm 0.00 in/hr0.0 mm/hr 0.00 in0.0 mm
06:02 PM 51.1°F10.6°C 38.5°F3.6°C 62% 6.9 mph S11.1 kmh S 8.1 mph13.0 kmh -338605.1 mb 0.00 in0.0 mm 0.00 in/hr0.0 mm/hr 0.00 in0.0 mm
06:07 PM 51.1°F10.6°C 38.8°F3.8°C 63% 8.1 mph SW13.0 kmh SW 6.9 mph11.1 kmh -338605.1 mb 0.00 in0.0 mm 0.00 in/hr0.0 mm/hr 0.00 in0.0 mm
06:12 PM 51.1°F10.6°C 38.5°F3.6°C 62% 6.9 mph SW11.1 kmh SW 8.1 mph13.0 kmh -338605.1 mb 0.00 in0.0 mm 0.00 in/hr0.0 mm/hr 0.00 in0.0 mm
06:17 PM 51.1°F10.6°C 38.5°F3.6°C 62% 8.1 mph SW13.0 kmh SW 15.0 mph24.1 kmh -338605.1 mb 0.00 in0.0 mm 0.00 in/hr0.0 mm/hr 0.00 in0.0 mm
06:22 PM 50.7°F10.4°C 37.4°F3.0°C 60% 8.9 mph SSW14.3 kmh SSW 8.1 mph13.0 kmh -338605.1 mb 0.00 in0.0 mm 0.00 in/hr0.0 mm/hr 0.00 in0.0 mm
06:27 PM 50.7°F10.4°C 37.8°F3.2°C 61% 8.9 mph SW14.3 kmh SW 8.9 mph14.3 kmh -338605.1 mb 0.00 in0.0 mm 0.00 in/hr0.0 mm/hr 0.00 in0.0 mm
06:32 PM 50.5°F10.3°C 37.2°F2.9°C 60% 8.1 mph SW13.0 kmh SW 8.9 mph14.3 kmh -338605.1 mb 0.00 in0.0 mm 0.00 in/hr0.0 mm/hr 0.00 in0.0 mm
06:37 PM 50.4°F10.2°C 37.4°F3.0°C 61% 8.1 mph SSW13.0 kmh SSW 8.1 mph13.0 kmh -338605.1 mb 0.00 in0.0 mm 0.00 in/hr0.0 mm/hr 0.00 in0.0 mm
06:42 PM 50.4°F10.2°C 37.4°F3.0°C 61% 8.1 mph SW13.0 kmh SW 4.9 mph7.9 kmh -338605.1 mb 0.00 in0.0 mm 0.00 in/hr0.0 mm/hr 0.00 in0.0 mm
06:47 PM 50.4°F10.2°C 37.0°F2.8°C 60% 8.1 mph SW13.0 kmh SW 8.9 mph14.3 kmh -338605.1 mb 0.00 in0.0 mm 0.00 in/hr0.0 mm/hr 0.00 in0.0 mm
06:52 PM 50.2°F10.1°C 36.9°F2.7°C 60% 6.9 mph SW11.1 kmh SW 4.9 mph7.9 kmh -338605.1 mb 0.00 in0.0 mm 0.00 in/hr0.0 mm/hr 0.00 in0.0 mm
06:57 PM 50.0°F10.0°C 37.6°F3.1°C 62% 6.9 mph SW11.1 kmh SW 4.0 mph6.4 kmh -338605.1 mb 0.00 in0.0 mm 0.00 in/hr0.0 mm/hr 0.00 in0.0 mm
07:02 PM 49.8°F9.9°C 36.1°F2.3°C 59% 6.9 mph SW11.1 kmh SW 4.9 mph7.9 kmh -338605.1 mb 0.00 in0.0 mm 0.00 in/hr0.0 mm/hr 0.00 in0.0 mm
07:07 PM 49.8°F9.9°C 36.1°F2.3°C 59% 6.0 mph WSW9.7 kmh WSW 6.0 mph9.7 kmh -338605.1 mb 0.00 in0.0 mm 0.00 in/hr0.0 mm/hr 0.00 in0.0 mm
07:12 PM 49.8°F9.9°C 36.9°F2.7°C 61% 6.0 mph SW9.7 kmh SW 6.9 mph11.1 kmh -338605.1 mb 0.00 in0.0 mm 0.00 in/hr0.0 mm/hr 0.00 in0.0 mm
07:17 PM 49.6°F9.8°C 36.3°F2.4°C 60% 6.0 mph SW9.7 kmh SW 6.0 mph9.7 kmh -338605.1 mb 0.00 in0.0 mm 0.00 in/hr0.0 mm/hr 0.00 in0.0 mm
07:22 PM 49.5°F9.7°C 35.8°F2.1°C 59% 6.9 mph SW11.1 kmh SW 11.0 mph17.7 kmh -338605.1 mb 0.00 in0.0 mm 0.00 in/hr0.0 mm/hr 0.00 in0.0 mm
07:27 PM 49.5°F9.7°C 36.1°F2.3°C 60% 6.9 mph SW11.1 kmh SW 8.9 mph14.3 kmh -338605.1 mb 0.00 in0.0 mm 0.00 in/hr0.0 mm/hr 0.00 in0.0 mm
07:32 PM 49.3°F9.6°C 36.0°F2.2°C 60% 6.9 mph SW11.1 kmh SW 8.9 mph14.3 kmh -338605.1 mb 0.00 in0.0 mm 0.00 in/hr0.0 mm/hr 0.00 in0.0 mm
07:37 PM 49.1°F9.5°C 35.8°F2.1°C 60% 6.9 mph SW11.1 kmh SW 6.0 mph9.7 kmh -338605.1 mb 0.00 in0.0 mm 0.00 in/hr0.0 mm/hr 0.00 in0.0 mm
07:42 PM 48.9°F9.4°C 36.1°F2.3°C 61% 6.9 mph WSW11.1 kmh WSW 8.1 mph13.0 kmh -338605.1 mb 0.00 in0.0 mm 0.00 in/hr0.0 mm/hr 0.00 in0.0 mm
07:47 PM 49.1°F9.5°C 36.3°F2.4°C 61% 6.0 mph SW9.7 kmh SW 8.9 mph14.3 kmh -338605.1 mb 0.00 in0.0 mm 0.00 in/hr0.0 mm/hr 0.00 in0.0 mm
07:52 PM 49.1°F9.5°C 35.8°F2.1°C 60% 6.0 mph SW9.7 kmh SW 8.1 mph13.0 kmh -338605.1 mb 0.00 in0.0 mm 0.00 in/hr0.0 mm/hr 0.00 in0.0 mm
07:57 PM 48.9°F9.4°C 35.6°F2.0°C 60% 6.0 mph SW9.7 kmh SW 6.0 mph9.7 kmh -338605.1 mb 0.00 in0.0 mm 0.00 in/hr0.0 mm/hr 0.00 in0.0 mm
08:02 PM 48.7°F9.3°C 35.4°F1.9°C 60% 6.0 mph SW9.7 kmh SW 4.0 mph6.4 kmh -338605.1 mb 0.00 in0.0 mm 0.00 in/hr0.0 mm/hr 0.00 in0.0 mm
08:07 PM 48.7°F9.3°C 35.4°F1.9°C 60% 6.0 mph SW9.7 kmh SW 2.9 mph4.7 kmh -338605.1 mb 0.00 in0.0 mm 0.00 in/hr0.0 mm/hr 0.00 in0.0 mm
08:12 PM 48.9°F9.4°C 36.1°F2.3°C 61% 4.9 mph SSW7.9 kmh SSW 4.9 mph7.9 kmh -338605.1 mb 0.00 in0.0 mm 0.00 in/hr0.0 mm/hr 0.00 in0.0 mm
08:17 PM 48.9°F9.4°C 36.5°F2.5°C 62% 4.9 mph S7.9 kmh S 6.9 mph11.1 kmh -338605.1 mb 0.00 in0.0 mm 0.00 in/hr0.0 mm/hr 0.00 in0.0 mm
08:22 PM 49.3°F9.6°C 36.3°F2.4°C 61% 6.0 mph SSW9.7 kmh SSW 2.9 mph4.7 kmh -338605.1 mb 0.00 in0.0 mm 0.00 in/hr0.0 mm/hr 0.00 in0.0 mm
08:27 PM 49.3°F9.6°C 36.3°F2.4°C 61% 4.9 mph SSW7.9 kmh SSW 4.9 mph7.9 kmh -338605.1 mb 0.00 in0.0 mm 0.00 in/hr0.0 mm/hr 0.00 in0.0 mm
08:32 PM 49.1°F9.5°C 36.3°F2.4°C 61% 4.9 mph SSW7.9 kmh SSW 6.9 mph11.1 kmh -338605.1 mb 0.00 in0.0 mm 0.00 in/hr0.0 mm/hr 0.00 in0.0 mm
08:37 PM 49.1°F9.5°C 36.7°F2.6°C 62% 4.9 mph SSW7.9 kmh SSW 4.0 mph6.4 kmh -338605.1 mb 0.00 in0.0 mm 0.00 in/hr0.0 mm/hr 0.00 in0.0 mm
08:42 PM 49.1°F9.5°C 36.7°F2.6°C 62% 4.9 mph SW7.9 kmh SW 6.0 mph9.7 kmh -338605.1 mb 0.00 in0.0 mm 0.00 in/hr0.0 mm/hr 0.00 in0.0 mm
08:47 PM 48.9°F9.4°C 36.5°F2.5°C 62% 4.9 mph SSW7.9 kmh SSW 4.9 mph7.9 kmh -338605.1 mb 0.00 in0.0 mm 0.00 in/hr0.0 mm/hr 0.00 in0.0 mm
08:52 PM 48.9°F9.4°C 36.5°F2.5°C 62% 4.9 mph SW7.9 kmh SW 2.9 mph4.7 kmh -338605.1 mb 0.00 in0.0 mm 0.00 in/hr0.0 mm/hr 0.00 in0.0 mm
08:57 PM 49.1°F9.5°C 36.7°F2.6°C 62% 4.0 mph SW6.4 kmh SW 2.9 mph4.7 kmh -338605.1 mb 0.00 in0.0 mm 0.00 in/hr0.0 mm/hr 0.00 in0.0 mm
09:02 PM 48.9°F9.4°C 36.1°F2.3°C 61% 4.0 mph SW6.4 kmh SW 6.0 mph9.7 kmh -338605.1 mb 0.00 in0.0 mm 0.00 in/hr0.0 mm/hr 0.00 in0.0 mm
09:07 PM 48.7°F9.3°C 36.0°F2.2°C 61% 4.9 mph SW7.9 kmh SW 6.0 mph9.7 kmh -338605.1 mb 0.00 in0.0 mm 0.00 in/hr0.0 mm/hr 0.00 in0.0 mm
09:12 PM 48.7°F9.3°C 36.3°F2.4°C 62% 6.0 mph S9.7 kmh S 13.0 mph20.9 kmh -338605.1 mb 0.00 in0.0 mm 0.00 in/hr0.0 mm/hr 0.00 in0.0 mm
09:17 PM 48.7°F9.3°C 36.3°F2.4°C 62% 8.1 mph SW13.0 kmh SW 4.9 mph7.9 kmh -338605.1 mb 0.00 in0.0 mm 0.00 in/hr0.0 mm/hr 0.00 in0.0 mm
09:22 PM 48.7°F9.3°C 36.3°F2.4°C 62% 8.9 mph SSW14.3 kmh SSW 4.9 mph7.9 kmh -338605.1 mb 0.00 in0.0 mm 0.00 in/hr0.0 mm/hr 0.00 in0.0 mm
09:27 PM 48.6°F9.2°C 36.1°F2.3°C 62% 6.9 mph SW11.1 kmh SW 6.0 mph9.7 kmh -338605.1 mb 0.00 in0.0 mm 0.00 in/hr0.0 mm/hr 0.00 in0.0 mm
09:32 PM 48.6°F9.2°C 36.5°F2.5°C 63% 6.0 mph SSW9.7 kmh SSW 6.0 mph9.7 kmh -338605.1 mb 0.00 in0.0 mm 0.00 in/hr0.0 mm/hr 0.00 in0.0 mm
09:37 PM 48.7°F9.3°C 36.3°F2.4°C 62% 6.0 mph SW9.7 kmh SW 8.9 mph14.3 kmh -338605.1 mb 0.00 in0.0 mm 0.00 in/hr0.0 mm/hr 0.00 in0.0 mm
09:42 PM 48.7°F9.3°C 36.3°F2.4°C 62% 6.0 mph WSW9.7 kmh WSW 6.9 mph11.1 kmh -338605.1 mb 0.00 in0.0 mm 0.00 in/hr0.0 mm/hr 0.00 in0.0 mm
09:47 PM 48.6°F9.2°C 35.8°F2.1°C 61% 6.9 mph SW11.1 kmh SW 8.9 mph14.3 kmh -338605.1 mb 0.00 in0.0 mm 0.00 in/hr0.0 mm/hr 0.00 in0.0 mm
09:52 PM 48.4°F9.1°C 35.6°F2.0°C 61% 8.1 mph SW13.0 kmh SW 8.1 mph13.0 kmh -338605.1 mb 0.00 in0.0 mm 0.00 in/hr0.0 mm/hr 0.00 in0.0 mm
09:57 PM 48.0°F8.9°C 35.6°F2.0°C 62% 8.1 mph WSW13.0 kmh WSW 10.1 mph16.3 kmh -338605.1 mb 0.00 in0.0 mm 0.00 in/hr0.0 mm/hr 0.00 in0.0 mm
10:02 PM 48.0°F8.9°C 35.2°F1.8°C 61% 8.1 mph WSW13.0 kmh WSW 8.9 mph14.3 kmh -338605.1 mb 0.00 in0.0 mm 0.00 in/hr0.0 mm/hr 0.00 in0.0 mm
10:07 PM 48.0°F8.9°C 35.6°F2.0°C 62% 6.9 mph SW11.1 kmh SW 6.0 mph9.7 kmh -338605.1 mb 0.00 in0.0 mm 0.00 in/hr0.0 mm/hr 0.00 in0.0 mm
10:12 PM 48.0°F8.9°C 35.6°F2.0°C 62% 6.0 mph SW9.7 kmh SW 8.1 mph13.0 kmh -338605.1 mb 0.00 in0.0 mm 0.00 in/hr0.0 mm/hr 0.00 in0.0 mm
10:17 PM 47.8°F8.8°C 35.4°F1.9°C 62% 6.9 mph SW11.1 kmh SW 6.9 mph11.1 kmh -338605.1 mb 0.00 in0.0 mm 0.00 in/hr0.0 mm/hr 0.00 in0.0 mm
10:22 PM 47.8°F8.8°C 35.1°F1.7°C 61% 6.9 mph SW11.1 kmh SW 8.1 mph13.0 kmh -338605.1 mb 0.00 in0.0 mm 0.00 in/hr0.0 mm/hr 0.00 in0.0 mm
10:27 PM 47.8°F8.8°C 35.4°F1.9°C 62% 6.0 mph SW9.7 kmh SW 6.9 mph11.1 kmh -338605.1 mb 0.00 in0.0 mm 0.00 in/hr0.0 mm/hr 0.00 in0.0 mm
10:32 PM 47.8°F8.8°C 35.4°F1.9°C 62% 6.0 mph SW9.7 kmh SW 4.9 mph7.9 kmh -338605.1 mb 0.00 in0.0 mm 0.00 in/hr0.0 mm/hr 0.00 in0.0 mm
10:37 PM 47.7°F8.7°C 35.6°F2.0°C 63% 6.0 mph SSW9.7 kmh SSW 4.9 mph7.9 kmh -338605.1 mb 0.00 in0.0 mm 0.00 in/hr0.0 mm/hr 0.00 in0.0 mm
10:42 PM 47.8°F8.8°C 35.4°F1.9°C 62% 6.0 mph S9.7 kmh S 8.9 mph14.3 kmh -338605.1 mb 0.00 in0.0 mm 0.00 in/hr0.0 mm/hr 0.00 in0.0 mm
10:47 PM 48.0°F8.9°C 35.6°F2.0°C 62% 6.0 mph SSW9.7 kmh SSW 6.0 mph9.7 kmh -338605.1 mb 0.00 in0.0 mm 0.00 in/hr0.0 mm/hr 0.00 in0.0 mm
10:52 PM 48.0°F8.9°C 34.9°F1.6°C 60% 4.9 mph S7.9 kmh S 2.0 mph3.2 kmh -338605.1 mb 0.00 in0.0 mm 0.00 in/hr0.0 mm/hr 0.00 in0.0 mm
10:57 PM 48.0°F8.9°C 34.9°F1.6°C 60% 4.0 mph SW6.4 kmh SW 2.9 mph4.7 kmh -338605.1 mb 0.00 in0.0 mm 0.00 in/hr0.0 mm/hr 0.00 in0.0 mm
11:02 PM 48.0°F8.9°C 35.2°F1.8°C 61% 2.9 mph SSW4.7 kmh SSW 2.0 mph3.2 kmh -338605.1 mb 0.00 in0.0 mm 0.00 in/hr0.0 mm/hr 0.00 in0.0 mm
11:07 PM 48.2°F9.0°C 35.4°F1.9°C 61% 2.0 mph SSW3.2 kmh SSW 4.0 mph6.4 kmh -338605.1 mb 0.00 in0.0 mm 0.00 in/hr0.0 mm/hr 0.00 in0.0 mm
11:12 PM 48.2°F9.0°C 34.9°F1.6°C 60% 2.0 mph SSW3.2 kmh SSW 0.9 mph1.4 kmh -338605.1 mb 0.00 in0.0 mm 0.00 in/hr0.0 mm/hr 0.00 in0.0 mm
11:17 PM 48.2°F9.0°C 34.9°F1.6°C 60% 2.0 mph SSW3.2 kmh SSW 0.9 mph1.4 kmh -338605.1 mb 0.00 in0.0 mm 0.00 in/hr0.0 mm/hr 0.00 in0.0 mm
11:22 PM 48.0°F8.9°C 34.9°F1.6°C 60% 2.0 mph SSW3.2 kmh SSW 2.9 mph4.7 kmh -338605.1 mb 0.00 in0.0 mm 0.00 in/hr0.0 mm/hr 0.00 in0.0 mm
11:27 PM 48.0°F8.9°C 34.9°F1.6°C 60% 2.0 mph SW3.2 kmh SW 2.9 mph4.7 kmh -338605.1 mb 0.00 in0.0 mm 0.00 in/hr0.0 mm/hr 0.00 in0.0 mm
11:32 PM 48.0°F8.9°C 35.2°F1.8°C 61% 2.9 mph SW4.7 kmh SW 4.0 mph6.4 kmh -338605.1 mb 0.00 in0.0 mm 0.00 in/hr0.0 mm/hr 0.00 in0.0 mm
11:37 PM 48.0°F8.9°C 35.2°F1.8°C 61% 4.0 mph SW6.4 kmh SW 6.0 mph9.7 kmh -338605.1 mb 0.00 in0.0 mm 0.00 in/hr0.0 mm/hr 0.00 in0.0 mm
11:42 PM 47.8°F8.8°C 35.4°F1.9°C 62% 2.9 mph SW4.7 kmh SW 4.9 mph7.9 kmh -338605.1 mb 0.00 in0.0 mm 0.00 in/hr0.0 mm/hr 0.00 in0.0 mm
11:47 PM 47.8°F8.8°C 35.4°F1.9°C 62% 4.0 mph SW6.4 kmh SW 4.0 mph6.4 kmh -338605.1 mb 0.00 in0.0 mm 0.00 in/hr0.0 mm/hr 0.00 in0.0 mm
11:52 PM 47.7°F8.7°C 35.2°F1.8°C 62% 4.0 mph SW6.4 kmh SW 4.9 mph7.9 kmh -338605.1 mb 0.00 in0.0 mm 0.00 in/hr0.0 mm/hr 0.00 in0.0 mm
11:57 PM 47.3°F8.5°C 34.9°F1.6°C 62% 4.9 mph SW7.9 kmh SW 6.0 mph9.7 kmh -338605.1 mb 0.00 in0.0 mm 0.00 in/hr0.0 mm/hr 0.00 in0.0 mm